Time;durP1;ratioP1;P1;durP2;ratioP2;P2;SDS_P1;SDS_P2;PMS_P1;PMS_P2;Temp;Humidity;BMP_temperature;BMP_pressure;BME280_temperature;BME280_humidity;BME280_pressure;Samples;Min_cycle;Max_cycle;Signal;HPM_P1;HPM_P2
2021/03/17 00:02:18;;;;;;;1999.90;999.90;;;;;;;2.54;70.40;101498.00;15711281;28;20045;-51
2021/03/17 00:10:11;;;;;;;1999.90;999.90;;;;;;;2.54;70.55;101503.50;15653753;28;20373;-53
2021/03/17 00:18:02;;;;;;;1999.90;999.90;;;;;;;2.14;72.51;101501.97;15691847;28;20044;-52
2021/03/17 00:25:52;;;;;;;1999.90;999.90;;;;;;;2.50;70.96;101499.59;15711049;28;20040;-55
2021/03/17 00:33:42;;;;;;;1999.90;999.90;;;;;;;2.51;70.71;101504.03;15715323;28;20456;-51
2021/03/17 00:41:33;;;;;;;1999.90;999.90;;;;;;;2.73;70.26;101503.97;15700989;28;20128;-55
2021/03/17 00:49:23;;;;;;;1999.90;999.90;;;;;;;2.65;70.37;101498.94;15711835;28;20124;-51
2021/03/17 00:56:58;;;;;;;1999.90;999.90;;;;;;;2.57;70.72;101487.28;15693321;28;20097;-50
2021/03/17 01:04:29;;;;;;;1999.90;999.90;;;;;;;2.46;70.76;101487.44;15700142;28;20049;-51
2021/03/17 01:12:02;;;;;;;1999.90;999.90;;;;;;;2.35;71.03;101483.75;15679739;28;20052;-52
2021/03/17 01:19:35;;;;;;;1999.90;999.90;;;;;;;2.44;70.42;101493.22;15701072;28;20056;-53
2021/03/17 01:27:07;;;;;;;1999.90;999.90;;;;;;;2.45;71.75;101489.38;15713511;28;20470;-55
2021/03/17 01:34:39;;;;;;;1999.90;999.90;;;;;;;2.42;72.14;101498.16;15698913;28;20112;-52
2021/03/17 01:42:11;;;;;;;1999.90;999.90;;;;;;;2.33;71.69;101496.13;15690408;28;20049;-53
2021/03/17 01:49:43;;;;;;;1999.90;999.90;;;;;;;2.34;71.79;101487.59;15705057;28;20045;-56
2021/03/17 01:57:15;;;;;;;1999.90;999.90;;;;;;;2.39;72.58;101497.81;15711680;28;20040;-52
2021/03/17 02:04:46;;;;;;;1999.90;999.90;;;;;;;2.42;72.61;101502.84;15694805;28;20062;-53
2021/03/17 02:12:31;;;;;;;1999.90;999.90;;;;;;;2.72;72.87;101496.81;15701834;28;20434;-52
2021/03/17 02:20:35;;;;;;;1999.90;999.90;;;;;;;2.73;73.28;101492.94;15701341;28;20405;-54
2021/03/17 02:28:24;;;;;;;1999.90;999.90;;;;;;;2.83;71.95;101496.63;15716709;28;20052;-52
2021/03/17 02:36:10;;;;;;;1999.90;999.90;;;;;;;2.61;73.33;101509.66;15722377;28;20368;-50
2021/03/17 02:43:45;;;;;;;1999.90;999.90;;;;;;;2.86;71.89;101498.03;15708173;28;20511;-52
2021/03/17 02:51:23;;;;;;;1999.90;999.90;;;;;;;2.82;72.85;101513.44;15699491;28;20090;-52
2021/03/17 02:58:55;;;;;;;1999.90;999.90;;;;;;;2.94;72.39;101503.06;15711073;28;20036;-55
2021/03/17 03:06:30;;;;;;;1999.90;999.90;;;;;;;3.17;72.35;101510.13;15719953;28;20064;-50
2021/03/17 03:14:03;;;;;;;1999.90;999.90;;;;;;;3.35;71.93;101508.88;15705385;28;20140;-55
2021/03/17 03:21:37;;;;;;;1999.90;999.90;;;;;;;3.38;71.51;101516.63;15696834;28;20545;-50
2021/03/17 03:29:11;;;;;;;1999.90;999.90;;;;;;;3.17;71.52;101499.91;15709193;28;20054;-50
2021/03/17 03:36:44;;;;;;;1999.90;999.90;;;;;;;2.94;71.98;101502.22;15711678;28;20128;-50
2021/03/17 03:44:16;;;;;;;1999.90;999.90;;;;;;;2.80;73.19;101510.91;15719419;28;20056;-55
2021/03/17 03:51:59;;;;;;;1999.90;999.90;;;;;;;2.94;73.84;101510.50;15677491;28;20323;-55
2021/03/17 03:59:36;;;;;;;1999.90;999.90;;;;;;;3.12;74.05;101534.88;15717927;28;20351;-56
2021/03/17 04:07:10;;;;;;;1999.90;999.90;;;;;;;3.20;73.84;101526.13;15709098;28;20087;-55
2021/03/17 04:14:46;;;;;;;1999.90;999.90;;;;;;;3.34;74.23;101535.63;15666315;28;20049;-57
2021/03/17 04:22:21;;;;;;;1999.90;999.90;;;;;;;3.43;73.70;101535.94;15689090;22;20507;-71
2021/03/17 04:29:54;;;;;;;1999.90;999.90;;;;;;;3.45;74.12;101534.63;15542877;28;20046;-70
2021/03/17 04:37:28;;;;;;;;;;;;;;;3.55;74.05;101544.06;15530928;28;20073;-71
2021/03/17 04:45:00;;;;;;;1999.90;999.90;;;;;;;3.53;73.89;101549.00;15511699;28;20344;-70
2021/03/17 04:52:34;;;;;;;1999.90;999.90;;;;;;;3.69;73.57;101543.31;15508725;28;20066;-70
2021/03/17 05:00:08;;;;;;;1999.90;999.90;;;;;;;3.67;73.74;101564.00;15515834;28;20039;-70
2021/03/17 05:07:43;;;;;;;1999.90;999.90;;;;;;;3.64;73.45;101557.06;15529028;28;20062;-71
2021/03/17 05:15:14;;;;;;;1999.90;999.90;;;;;;;3.54;73.80;101579.06;15511271;28;20100;-72
2021/03/17 05:22:50;;;;;;;1999.90;999.90;;;;;;;3.31;74.69;101572.00;15514529;28;20050;-72
2021/03/17 05:30:25;;;;;;;1999.90;999.90;;;;;;;3.42;74.49;101565.47;15506795;28;20042;-71
2021/03/17 05:37:57;;;;;;;1999.90;999.90;;;;;;;3.27;75.50;101570.88;15501539;28;20464;-71
2021/03/17 05:45:29;;;;;;;1999.90;999.90;;;;;;;3.63;74.32;101595.97;15534737;28;20141;-71
2021/03/17 05:53:05;;;;;;;1999.90;999.90;;;;;;;3.67;74.16;101591.63;15535869;28;20054;-70
2021/03/17 06:00:37;;;;;;;1999.90;999.90;;;;;;;3.86;73.85;101603.88;15539314;28;20624;-71
2021/03/17 06:08:13;;;;;;;1999.90;999.90;;;;;;;4.00;73.22;101610.59;15505508;28;20037;-71
2021/03/17 06:15:51;;;;;;;1999.90;999.90;;;;;;;4.32;72.92;101606.88;15531694;28;20218;-69
2021/03/17 06:23:24;;;;;;;1999.90;999.90;;;;;;;4.22;73.44;101623.41;15499482;28;20042;-71
2021/03/17 06:30:56;;;;;;;1999.90;999.90;;;;;;;4.81;71.43;101621.16;15523718;28;20042;-72
2021/03/17 06:38:29;;;;;;;1999.90;999.90;;;;;;;4.89;71.72;101631.66;15512965;28;20129;-71
2021/03/17 06:46:03;;;;;;;1999.90;999.90;;;;;;;5.06;71.09;101636.97;15529115;28;20049;-72
2021/03/17 06:53:37;;;;;;;1999.90;999.90;;;;;;;4.99;71.92;101644.69;15554793;28;20072;-71
2021/03/17 07:01:23;;;;;;;1999.90;999.90;;;;;;;5.47;69.05;101640.63;15556384;28;20196;-71
2021/03/17 07:08:56;;;;;;;1999.90;999.90;;;;;;;5.57;70.06;101642.56;15555753;28;20082;-72
2021/03/17 07:16:33;;;;;;;1999.90;999.90;;;;;;;5.93;68.43;101646.16;15556476;28;20092;-71
2021/03/17 07:24:08;;;;;;;1999.90;999.90;;;;;;;6.04;67.99;101652.50;15559552;28;20041;-72
2021/03/17 07:31:46;;;;;;;1999.90;999.90;;;;;;;5.88;68.32;101645.31;15573161;28;20490;-70
2021/03/17 07:39:21;;;;;;;1999.90;999.90;;;;;;;6.98;66.67;101655.47;15553146;28;20042;-72
2021/03/17 07:46:55;;;;;;;1999.90;999.90;;;;;;;7.01;64.50;101661.31;15530294;28;20089;-72
2021/03/17 07:54:30;;;;;;;1999.90;999.90;;;;;;;7.97;61.67;101672.78;15481351;28;20110;-72
2021/03/17 08:02:03;;;;;;;1999.90;999.90;;;;;;;6.93;65.21;101668.28;15490088;28;20314;-72
2021/03/17 08:09:36;;;;;;;1999.90;999.90;;;;;;;7.41;63.51;101684.38;15490318;28;20039;-71
2021/03/17 08:17:09;;;;;;;1999.90;999.90;;;;;;;7.59;62.99;101682.84;15488983;28;20038;-72
2021/03/17 08:24:44;;;;;;;1999.90;999.90;;;;;;;7.30;64.47;101693.91;15484520;28;20050;-72
2021/03/17 08:32:18;;;;;;;1999.90;999.90;;;;;;;7.00;65.01;101683.78;15486507;28;20122;-72
2021/03/17 08:39:50;;;;;;;1999.90;999.90;;;;;;;6.88;66.09;101701.63;15487502;28;20061;-72
2021/03/17 08:47:27;;;;;;;1999.90;999.90;;;;;;;7.26;64.48;101704.72;15483992;28;20053;-72
2021/03/17 08:55:01;;;;;;;1999.90;999.90;;;;;;;6.92;64.62;101710.19;15468255;28;20101;-72
2021/03/17 09:02:52;;;;;;;1999.90;999.90;;;;;;;7.22;64.90;101723.09;15484614;28;20050;-73
2021/03/17 09:10:37;;;;;;;1999.90;999.90;;;;;;;6.98;65.41;101717.34;15478874;28;20070;-74
2021/03/17 09:18:09;;;;;;;1999.90;999.90;;;;;;;7.17;64.42;101723.09;15485364;28;20402;-72
2021/03/17 09:25:44;;;;;;;1999.90;999.90;;;;;;;7.55;63.45;101721.47;15484614;28;20046;-72
2021/03/17 09:33:19;;;;;;;1999.90;999.90;;;;;;;7.66;63.32;101733.34;15487013;28;20047;-73
2021/03/17 09:40:57;;;;;;;1999.90;999.90;;;;;;;7.59;63.61;101736.44;15486477;28;20101;-72
2021/03/17 09:48:30;;;;;;;1999.90;999.90;;;;;;;7.67;64.17;101740.56;15489487;28;20502;-73
2021/03/17 09:56:03;;;;;;;1999.90;999.90;;;;;;;7.84;64.56;101737.41;15481635;28;20109;-72
2021/03/17 10:03:34;;;;;;;1999.90;999.90;;;;;;;8.87;61.27;101747.25;15485816;28;20137;-72
2021/03/17 10:11:13;;;;;;;1999.90;999.90;;;;;;;8.91;61.05;101745.53;15482694;28;20057;-73
2021/03/17 10:18:52;;;;;;;1999.90;999.90;;;;;;;8.86;59.77;101754.78;15483824;28;20050;-73
2021/03/17 10:26:24;;;;;;;1999.90;999.90;;;;;;;8.70;61.30;101760.81;15482518;28;20387;-72
2021/03/17 10:33:55;;;;;;;1999.90;999.90;;;;;;;9.23;60.21;101762.38;15474428;28;20053;-71
2021/03/17 10:41:41;;;;;;;1999.90;999.90;;;;;;;8.91;62.23;101757.50;15680864;22;20071;-65
2021/03/17 10:49:13;;;;;;;1999.90;999.90;;;;;;;9.91;56.89;101751.94;15715545;28;20045;-65
2021/03/17 10:56:50;;;;;;;1999.90;999.90;;;;;;;9.98;58.12;101758.75;15752399;22;20053;-57
2021/03/17 11:04:22;;;;;;;1999.90;999.90;;;;;;;9.85;57.50;101759.53;15710406;28;20059;-56
2021/03/17 11:11:54;;;;;;;1999.90;999.90;;;;;;;10.05;56.81;101758.38;15732441;28;20071;-56
2021/03/17 11:19:26;;;;;;;1999.90;999.90;;;;;;;10.15;56.26;101754.59;15737883;28;20049;-57
2021/03/17 11:26:58;;;;;;;1999.90;999.90;;;;;;;9.70;56.94;101745.84;15674224;28;20052;-55
2021/03/17 11:34:29;;;;;;;1999.90;999.90;;;;;;;10.12;55.88;101758.81;15676764;28;20452;-54
2021/03/17 11:42:02;;;;;;;1999.90;999.90;;;;;;;11.46;51.92;101753.97;15685438;28;20056;-55
2021/03/17 12:07:56;;;;;;;1999.90;999.90;;;;;;;9.82;55.51;101757.34;15689699;28;20051;-55
2021/03/17 12:15:28;;;;;;;1999.90;999.90;;;;;;;10.27;55.18;101755.78;15688300;28;20111;-57
2021/03/17 12:23:01;;;;;;;1999.90;999.90;;;;;;;10.55;55.85;101758.66;15699481;28;20468;-53
2021/03/17 12:30:33;;;;;;;1999.90;999.90;;;;;;;10.58;54.34;101753.25;15716949;28;20346;-57
2021/03/17 12:38:05;;;;;;;1999.90;999.90;;;;;;;10.13;56.28;101754.91;15701725;28;20110;-55
2021/03/17 12:45:37;;;;;;;1999.90;999.90;;;;;;;10.14;55.88;101750.97;15733154;28;20290;-56
2021/03/17 12:53:09;;;;;;;1999.90;999.90;;;;;;;10.31;57.43;101753.19;15733256;28;20048;-56
2021/03/17 13:00:40;;;;;;;1999.90;999.90;;;;;;;10.35;55.54;101757.06;15733435;28;20068;-56
2021/03/17 13:08:18;;;;;;;1999.90;999.90;;;;;;;9.98;56.11;101763.50;15715537;28;20048;-58
2021/03/17 13:15:50;;;;;;;1999.90;999.90;;;;;;;9.79;56.61;101758.75;15733163;28;20052;-58
2021/03/17 13:23:23;;;;;;;1999.90;999.90;;;;;;;9.83;56.33;101762.63;15731516;28;20119;-58
2021/03/17 13:30:54;;;;;;;1999.90;999.90;;;;;;;10.18;55.42;101757.59;15712468;28;20105;-60
2021/03/17 13:38:27;;;;;;;1999.90;999.90;;;;;;;10.17;55.58;101760.69;15693639;28;20150;-54
2021/03/17 13:45:58;;;;;;;1999.90;999.90;;;;;;;9.42;55.68;101776.31;15722834;28;20067;-56
2021/03/17 13:53:34;;;;;;;1999.90;999.90;;;;;;;10.04;55.25;101776.25;15711129;28;20137;-58
2021/03/17 14:01:05;;;;;;;1999.90;999.90;;;;;;;8.55;61.57;101797.97;15719757;28;20049;-59
2021/03/17 14:08:37;;;;;;;1999.90;999.90;;;;;;;7.42;64.20;101811.00;15756662;28;20052;-60
2021/03/17 14:16:09;;;;;;;1999.90;999.90;;;;;;;6.12;69.72;101836.78;15699811;28;20053;-58
2021/03/17 14:23:43;;;;;;;1999.90;999.90;;;;;;;5.59;72.66;101839.69;15734981;28;20440;-59
2021/03/17 14:31:15;;;;;;;1999.90;999.90;;;;;;;5.84;73.06;101836.19;15693759;28;20323;-56
2021/03/17 14:38:47;;;;;;;1999.90;999.90;;;;;;;6.25;71.96;101827.91;15730586;28;20511;-55
2021/03/17 14:46:19;;;;;;;1999.90;999.90;;;;;;;6.59;69.53;101830.97;15715909;28;20048;-59
2021/03/17 14:53:51;;;;;;;1999.90;999.90;;;;;;;7.24;69.05;101831.91;15713604;28;20154;-56
2021/03/17 15:01:23;;;;;;;1999.90;999.90;;;;;;;7.13;68.04;101828.34;15742060;28;20057;-59
2021/03/17 15:08:55;;;;;;;1999.90;999.90;;;;;;;6.99;69.45;101827.28;15740996;28;20098;-58
2021/03/17 15:16:27;;;;;;;1999.90;999.90;;;;;;;7.44;68.31;101837.38;15718984;28;20048;-57
2021/03/17 15:23:59;;;;;;;1999.90;999.90;;;;;;;7.42;68.61;101849.88;15705923;28;20041;-59
2021/03/17 15:31:31;;;;;;;1999.90;999.90;;;;;;;7.74;68.10;101852.22;15707027;28;20037;-60
2021/03/17 15:39:06;;;;;;;1999.90;999.90;;;;;;;7.25;69.18;101858.53;15691784;28;20137;-60
2021/03/17 15:46:37;;;;;;;1999.90;999.90;;;;;;;6.81;70.15;101856.44;15691490;28;20493;-61
2021/03/17 15:54:10;;;;;;;1999.90;999.90;;;;;;;6.93;70.43;101865.28;15738763;28;20491;-59
2021/03/17 16:01:41;;;;;;;1999.90;999.90;;;;;;;6.93;70.35;101867.25;15735823;28;20490;-57
2021/03/17 16:09:14;;;;;;;1999.90;999.90;;;;;;;6.93;71.17;101875.56;15735494;28;20063;-55
2021/03/17 16:16:45;;;;;;;1999.90;999.90;;;;;;;6.91;70.59;101875.03;15735551;28;20059;-61
2021/03/17 16:24:17;;;;;;;1999.90;999.90;;;;;;;6.79;71.34;101875.31;15735474;28;20044;-59
2021/03/17 16:31:49;;;;;;;1999.90;999.90;;;;;;;6.79;70.78;101883.66;15716786;28;20574;-60
2021/03/17 16:39:21;;;;;;;1999.90;999.90;;;;;;;6.67;70.92;101891.44;15696898;28;20044;-57
2021/03/17 16:46:53;;;;;;;1999.90;999.90;;;;;;;6.32;71.90;101900.56;15715431;28;20055;-58
2021/03/17 16:54:25;;;;;;;1999.90;999.90;;;;;;;6.35;71.41;101888.91;15709515;23;20051;-72
2021/03/17 17:01:56;;;;;;;1999.90;999.90;;;;;;;6.41;72.18;101890.59;15736678;28;20499;-72
2021/03/17 17:09:30;;;;;;;1999.90;999.90;;;;;;;6.23;73.31;101891.94;15794613;28;20048;-71
2021/03/17 17:17:01;;;;;;;1999.90;999.90;;;;;;;6.16;73.35;101898.88;15794441;28;20447;-72
2021/03/17 17:24:34;;;;;;;1999.90;999.90;;;;;;;6.07;73.00;101912.44;15775487;28;20040;-73
2021/03/17 17:32:06;;;;;;;1999.90;999.90;;;;;;;5.76;73.54;101917.88;15793630;28;20040;-73
2021/03/17 17:39:40;;;;;;;1999.90;999.90;;;;;;;5.70;73.34;101915.34;15795425;28;20036;-73
2021/03/17 17:47:12;;;;;;;1999.90;999.90;;;;;;;5.44;73.49;101923.53;15805571;28;20067;-72
2021/03/17 17:54:44;;;;;;;1999.90;999.90;;;;;;;5.32;73.32;101917.41;15804944;28;20078;-72
2021/03/17 18:02:15;;;;;;;1999.90;999.90;;;;;;;5.11;73.12;101932.22;15804588;28;20545;-71
2021/03/17 18:09:49;;;;;;;1999.90;999.90;;;;;;;4.98;73.08;101936.25;15765751;28;20046;-71
2021/03/17 18:17:22;;;;;;;1999.90;999.90;;;;;;;4.83;72.89;101942.53;15806562;28;20040;-71
2021/03/17 18:24:59;;;;;;;1999.90;999.90;;;;;;;4.71;73.21;101954.88;15802606;28;20197;-69
2021/03/17 18:32:31;;;;;;;1999.90;999.90;;;;;;;4.58;74.07;101954.19;15800141;28;20488;-71
2021/03/17 18:40:10;;;;;;;1999.90;999.90;;;;;;;4.57;73.64;101948.94;15790420;28;20429;-71
2021/03/17 18:47:44;;;;;;;1999.90;999.90;;;;;;;4.43;73.21;101951.31;15783631;28;20040;-70
2021/03/17 18:55:20;;;;;;;1999.90;999.90;;;;;;;4.33;73.38;101948.44;15767870;28;20048;-69
2021/03/17 19:02:53;;;;;;;1999.90;999.90;;;;;;;3.94;73.75;101956.84;15800997;28;20382;-72
2021/03/17 19:10:27;;;;;;;1999.90;999.90;;;;;;;3.89;74.30;101961.50;15783146;28;20044;-72
2021/03/17 19:17:59;;;;;;;1999.90;999.90;;;;;;;3.96;73.21;101965.75;15784627;28;20065;-75
2021/03/17 19:25:35;;;;;;;1999.90;999.90;;;;;;;3.95;73.35;101972.34;15802683;28;20529;-73
2021/03/17 19:33:10;;;;;;;1999.90;999.90;;;;;;;3.94;73.37;101965.16;15777978;28;20044;-72
2021/03/17 19:40:47;;;;;;;1999.90;999.90;;;;;;;3.88;73.40;101959.84;15778438;28;20047;-72
2021/03/17 19:48:19;;;;;;;1999.90;999.90;;;;;;;3.51;74.20;101965.16;15783914;28;20480;-71
2021/03/17 19:55:52;;;;;;;1999.90;999.90;;;;;;;3.61;73.65;101968.88;15788307;28;20062;-71
2021/03/17 20:03:42;;;;;;;1999.90;999.90;;;;;;;3.44;73.68;101988.28;15818289;28;20036;-74
2021/03/17 20:11:15;;;;;;;1999.90;999.90;;;;;;;3.36;74.44;101983.19;15801290;28;20047;-74
2021/03/17 20:18:47;;;;;;;1999.90;999.90;;;;;;;3.19;73.83;101994.22;15800625;28;20038;-72
2021/03/17 20:26:20;;;;;;;1999.90;999.90;;;;;;;3.15;73.92;101986.72;15797520;28;20040;-71
2021/03/17 20:33:56;;;;;;;1999.90;999.90;;;;;;;3.09;73.92;101987.72;15796323;28;20051;-73
2021/03/17 20:41:29;;;;;;;1999.90;999.90;;;;;;;3.11;74.25;101991.06;15756705;28;20128;-71
2021/03/17 20:49:01;;;;;;;1999.90;999.90;;;;;;;3.01;74.59;101988.16;15784541;28;20193;-72
2021/03/17 20:56:34;;;;;;;1999.90;999.90;;;;;;;2.98;74.05;101983.97;15731335;28;20117;-72
2021/03/17 21:04:11;;;;;;;1999.90;999.90;;;;;;;2.86;74.19;101986.81;15774003;28;20055;-73
2021/03/17 21:11:46;;;;;;;;;;;;;;;2.98;73.59;102002.44;15775463;28;20041;-75
2021/03/17 21:19:26;;;;;;;1999.90;999.90;;;;;;;2.88;74.34;102005.88;15776321;28;20018;-72
2021/03/17 21:27:01;;;;;;;1999.90;999.90;;;;;;;2.89;75.12;102015.81;15744986;28;20048;-72
2021/03/17 21:34:34;;;;;;;1999.90;999.90;;;;;;;2.87;74.61;102013.31;15796493;28;20068;-70
2021/03/17 21:42:51;;;;;;;1999.90;999.90;;;;;;;2.81;74.68;102016.22;15686874;28;20056;-71
2021/03/17 21:50:24;;;;;;;1999.90;999.90;;;;;;;2.81;73.99;102021.72;15764829;28;20113;-71
2021/03/17 21:57:56;;;;;;;1999.90;999.90;;;;;;;2.69;74.72;102016.28;15795744;28;20067;-71
2021/03/17 22:05:28;;;;;;;1999.90;999.90;;;;;;;2.63;75.27;102025.56;15792787;28;20048;-71
2021/03/17 22:13:02;;;;;;;1999.90;999.90;;;;;;;2.64;74.67;102024.47;15796206;28;20075;-72
2021/03/17 22:20:37;;;;;;;1999.90;999.90;;;;;;;2.55;75.05;102010.28;15793935;28;20391;-72
2021/03/17 22:28:11;;;;;;;1999.90;999.90;;;;;;;2.46;75.53;102019.19;15800041;28;20050;-72
2021/03/17 22:35:45;;;;;;;1999.90;999.90;;;;;;;2.47;74.97;102013.41;15804525;28;20048;-73
2021/03/17 22:43:18;;;;;;;1999.90;999.90;;;;;;;2.40;75.22;102000.88;15807787;28;20176;-71
2021/03/17 22:50:55;;;;;;;1999.90;999.90;;;;;;;2.38;74.55;102003.88;15805563;28;20074;-71
2021/03/17 22:58:28;;;;;;;1999.90;999.90;;;;;;;2.33;74.35;102011.22;15803169;28;20044;-72
2021/03/17 23:06:00;;;;;;;1999.90;999.90;;;;;;;2.30;74.07;101999.63;15802774;28;20434;-71
2021/03/17 23:13:32;;;;;;;1999.90;999.90;;;;;;;2.16;74.24;101995.47;15755946;23;20056;-65
2021/03/17 23:21:11;;;;;;;1999.90;999.90;;;;;;;2.18;73.54;101993.31;15742127;28;20127;-64
2021/03/17 23:28:48;;;;;;;1999.90;999.90;;;;;;;2.02;74.54;101996.88;15703835;28;20051;-63
2021/03/17 23:36:21;;;;;;;1999.90;999.90;;;;;;;2.03;74.41;102004.03;15715908;28;20408;-66
2021/03/17 23:43:53;;;;;;;1999.90;999.90;;;;;;;1.96;74.49;102006.09;15733406;28;20047;-63
2021/03/17 23:51:25;;;;;;;1999.90;999.90;;;;;;;1.94;74.30;101992.56;15718603;28;20052;-63
2021/03/17 23:58:58;;;;;;;1999.90;999.90;;;;;;;2.00;74.11;101997.13;15730140;28;20076;-64
